Arnesen, Minnesota
Current Conditions -  °F | °C
As of 4:54 PM on Thursday 18 Dec 2014 (Local Time) from KRRT Reporting Station
Clear Clear  
Wind Chill:   Ceiling: Unl
Heat Index: 18°   Visibility: 10mi
Dew Point: 12°   Wind: 8mph
Humidity: 79%   Direction: 150°SSE
Pressure: 30.2"   Gusts: NA
Location:  48.6345°N, 95.1786°W
Report Text: KRRT 182254Z AUTO 15007KT 10SM CLR M08/M11 A3020 RMK AO2
Loading
Personal Weather Stations






























Interactive Weather Map New forecast layout! Learn more

10-Day Weather Forecast

Advertisements
Track Severe Weather on mobile